createdAt,value
2023-02-11T00:02:15.222Z,96673.28
2023-02-11T00:04:41.784Z,96672.56
2023-02-11T00:07:08.306Z,96675.06
2023-02-11T00:09:37.357Z,96663.47
2023-02-11T00:12:04.408Z,96660.19
2023-02-11T00:14:30.998Z,96653.06
2023-02-11T00:16:57.594Z,96651.16
2023-02-11T00:19:24.157Z,96650.59
2023-02-11T00:21:50.668Z,96649.38
2023-02-11T00:24:17.228Z,96653.44
2023-02-11T00:26:45.161Z,96655.78
2023-02-11T00:29:11.700Z,96642.75
2023-02-11T00:31:38.374Z,96636.91
2023-02-11T00:34:04.984Z,96635.50
2023-02-11T00:36:31.559Z,96630.31
2023-02-11T00:38:58.373Z,96639.19
2023-02-11T00:41:25.980Z,96639.09
2023-02-11T00:43:53.965Z,96651.66
2023-02-11T00:46:21.144Z,96653.38
2023-02-11T00:48:47.962Z,96646.78
2023-02-11T00:51:14.621Z,96644.47
2023-02-11T00:53:41.887Z,96648.94
2023-02-11T00:56:08.954Z,96648.69
2023-02-11T00:58:36.000Z,96639.19
2023-02-11T01:01:04.777Z,96638.19
2023-02-11T01:03:31.577Z,96641.28
2023-02-11T01:05:58.143Z,96637.19
2023-02-11T01:08:24.845Z,96637.84
2023-02-11T01:10:56.504Z,96630.38
2023-02-11T01:13:23.903Z,96629.16
2023-02-11T01:15:51.017Z,96625.34
2023-02-11T01:18:19.364Z,96625.59
2023-02-11T01:20:45.965Z,96630.00
2023-02-11T01:23:12.500Z,96629.28
2023-02-11T01:25:39.070Z,96617.84
2023-02-11T01:28:05.716Z,96622.44
2023-02-11T01:30:34.235Z,96616.09
2023-02-11T01:33:00.762Z,96615.56
2023-02-11T01:35:28.664Z,96615.94
2023-02-11T01:37:55.207Z,96602.00
2023-02-11T01:40:21.857Z,96599.13
2023-02-11T01:42:50.887Z,96595.63
2023-02-11T01:45:51.342Z,96600.09
2023-02-11T01:48:22.608Z,96589.53
2023-02-11T01:50:54.867Z,96588.50
2023-02-11T01:53:41.087Z,96594.75
2023-02-11T01:56:37.488Z,96587.88
2023-02-11T01:59:11.628Z,96583.63
2023-02-11T02:01:40.556Z,96582.13
2023-02-11T02:04:09.479Z,96584.47
2023-02-11T02:06:43.701Z,96584.47
2023-02-11T02:09:16.700Z,96590.06
2023-02-11T02:11:43.381Z,96588.41
2023-02-11T02:14:09.924Z,96585.78
2023-02-11T02:16:37.645Z,96579.75
2023-02-11T02:19:41.440Z,96578.81
2023-02-11T02:22:55.473Z,96580.91
2023-02-11T02:25:49.955Z,96572.91
2023-02-11T02:28:36.794Z,96569.84
2023-02-11T02:31:30.546Z,96564.38
2023-02-11T02:34:02.381Z,96573.28
2023-02-11T02:36:34.143Z,96568.91
2023-02-11T02:39:07.907Z,96572.44
2023-02-11T02:41:36.956Z,96573.41
2023-02-11T02:44:03.918Z,96567.00
2023-02-11T02:46:33.172Z,96580.91
2023-02-11T02:49:01.380Z,96571.66
2023-02-11T02:51:51.737Z,96564.81
2023-02-11T02:54:47.550Z,96574.84
2023-02-11T02:57:28.579Z,96574.84
2023-02-11T03:00:08.179Z,96571.44
2023-02-11T03:02:40.313Z,96570.59
2023-02-11T03:05:16.119Z,96567.19
2023-02-11T03:07:48.460Z,96564.94
2023-02-11T03:10:19.334Z,96569.91
2023-02-11T03:12:48.377Z,96568.00
2023-02-11T03:15:17.443Z,96566.59
2023-02-11T03:17:49.273Z,96564.25
2023-02-11T03:20:20.448Z,96570.84
2023-02-11T03:22:50.814Z,96579.91
2023-02-11T03:25:17.788Z,96579.69
2023-02-11T03:27:57.537Z,96576.91
2023-02-11T03:30:27.410Z,96573.19
2023-02-11T03:32:56.023Z,96570.69
2023-02-11T03:35:32.143Z,96576.47
2023-02-11T03:38:04.294Z,96566.06
2023-02-11T03:40:35.184Z,96568.94
2023-02-11T03:43:07.250Z,96561.13
2023-02-11T03:45:36.109Z,96552.34
2023-02-11T03:48:06.620Z,96547.84
2023-02-11T03:50:37.205Z,96552.47
2023-02-11T03:53:05.121Z,96550.44
2023-02-11T03:55:34.922Z,96540.44
2023-02-11T03:58:01.367Z,96548.81
2023-02-11T04:00:30.984Z,96541.47
2023-02-11T04:02:57.570Z,96556.72
2023-02-11T04:05:24.141Z,96540.84
2023-02-11T04:07:52.064Z,96532.84
2023-02-11T04:10:18.754Z,96524.75
2023-02-11T04:12:45.344Z,96517.75
2023-02-11T04:15:11.884Z,96527.00
2023-02-11T04:17:38.643Z,96533.03
2023-02-11T04:20:05.951Z,96525.16
2023-02-11T04:22:32.574Z,96524.75
2023-02-11T04:25:00.424Z,96529.81
2023-02-11T04:27:26.969Z,96532.56
2023-02-11T04:29:54.100Z,96538.56
2023-02-11T04:32:20.661Z,96533.13
2023-02-11T04:34:47.504Z,96540.09
2023-02-11T04:37:14.600Z,96541.75
2023-02-11T04:39:41.274Z,96538.13
2023-02-11T04:42:09.140Z,96539.41
2023-02-11T04:44:35.697Z,96562.78
2023-02-11T04:47:02.366Z,96535.00
2023-02-11T04:49:29.096Z,96535.50
2023-02-11T04:51:55.680Z,96533.44
2023-02-11T04:54:22.443Z,96534.84
2023-02-11T04:56:49.672Z,96543.31
2023-02-11T04:59:17.578Z,96527.41
2023-02-11T05:01:44.136Z,96539.09
2023-02-11T05:04:10.756Z,96554.38
2023-02-11T05:06:38.273Z,96552.34
2023-02-11T05:09:04.845Z,96560.72
2023-02-11T05:11:31.498Z,96563.06
2023-02-11T05:13:58.057Z,96559.97
2023-02-11T05:16:25.987Z,96559.25
2023-02-11T05:18:53.702Z,96554.63
2023-02-11T05:21:20.555Z,96550.38
2023-02-11T05:23:47.303Z,96545.88
2023-02-11T05:26:14.374Z,96538.78
2023-02-11T05:28:41.569Z,96538.38
2023-02-11T05:31:08.613Z,96537.50
2023-02-11T05:33:36.706Z,96538.06
2023-02-11T05:36:06.585Z,96539.34
2023-02-11T05:38:33.812Z,96545.22
2023-02-11T05:41:00.796Z,96534.09
2023-02-11T05:43:27.361Z,96521.66
2023-02-11T05:45:54.171Z,96524.41
2023-02-11T05:48:20.949Z,96519.78
2023-02-11T05:50:48.892Z,96517.88
2023-02-11T05:53:15.446Z,96521.44
2023-02-11T05:55:42.214Z,96541.44
2023-02-11T05:58:08.930Z,96533.75
2023-02-11T06:00:35.967Z,96536.69
2023-02-11T06:03:04.328Z,96556.06
2023-02-11T06:05:31.504Z,96562.81
2023-02-11T06:07:59.790Z,96569.44
2023-02-11T06:10:26.649Z,96567.06
2023-02-11T06:12:53.260Z,96564.69
2023-02-11T06:15:20.096Z,96580.06
2023-02-11T06:17:46.627Z,96575.69
2023-02-11T06:20:13.450Z,96585.03
2023-02-11T06:22:40.062Z,96591.16
2023-02-11T06:25:08.321Z,96587.03
2023-02-11T06:27:34.834Z,96593.06
2023-02-11T06:30:01.394Z,96599.22
2023-02-11T06:32:44.026Z,96593.06
2023-02-11T06:35:12.441Z,96597.06
2023-02-11T06:37:39.144Z,96589.63
2023-02-11T06:40:06.604Z,96581.97
2023-02-11T06:42:36.075Z,96561.03
2023-02-11T06:45:02.913Z,96554.66
2023-02-11T06:47:29.460Z,96548.41
2023-02-11T06:49:55.982Z,96531.72
2023-02-11T06:52:22.582Z,96511.06
2023-02-11T06:54:49.112Z,96506.81
2023-02-11T06:57:15.697Z,96503.00
2023-02-11T06:59:43.639Z,96518.97
2023-02-11T07:02:10.802Z,96517.44
2023-02-11T07:04:37.409Z,96528.66
2023-02-11T07:07:03.984Z,96544.31
2023-02-11T07:09:30.593Z,96546.50
2023-02-11T07:11:57.142Z,96547.22
2023-02-11T07:14:23.719Z,96545.09
2023-02-11T07:16:51.752Z,96554.81
2023-02-11T07:19:18.335Z,96553.25
2023-02-11T07:21:44.882Z,96560.34
2023-02-11T07:24:11.657Z,96552.53
2023-02-11T07:26:38.414Z,96567.41
2023-02-11T07:29:05.157Z,96577.56
2023-02-11T07:31:32.327Z,96579.69
2023-02-11T07:34:01.941Z,96571.56
2023-02-11T07:36:30.516Z,96566.13
2023-02-11T07:38:57.075Z,96565.53
2023-02-11T07:41:25.146Z,96577.97
2023-02-11T07:43:52.077Z,96575.31
2023-02-11T07:46:20.500Z,96573.31
2023-02-11T07:48:47.436Z,96566.34
2023-02-11T07:51:17.165Z,96570.38
2023-02-11T07:53:43.995Z,96579.22
2023-02-11T07:56:12.157Z,96579.22
2023-02-11T07:58:38.783Z,96573.09
2023-02-11T08:01:06.953Z,96571.31
2023-02-11T08:03:34.250Z,96567.84
2023-02-11T08:06:04.073Z,96573.53
2023-02-11T08:08:31.765Z,96576.84
2023-02-11T08:10:58.352Z,96578.50
2023-02-11T08:13:26.885Z,96582.53
2023-02-11T08:15:57.645Z,96577.47
2023-02-11T08:18:24.191Z,96574.50
2023-02-11T08:20:50.963Z,96560.44
2023-02-11T08:23:17.641Z,96556.06
2023-02-11T08:25:45.526Z,96559.38
2023-02-11T08:28:12.152Z,96567.19
2023-02-11T08:30:38.794Z,96558.09
2023-02-11T08:33:05.361Z,96566.84
2023-02-11T08:35:33.118Z,96578.06
2023-02-11T08:37:59.652Z,96576.16
2023-02-11T08:40:26.180Z,96558.59
2023-02-11T08:42:54.098Z,96569.19
2023-02-11T08:45:20.680Z,96568.94
2023-02-11T08:47:47.230Z,96575.69
2023-02-11T08:50:13.844Z,96580.75
2023-02-11T08:52:40.409Z,96572.47
2023-02-11T08:55:07.402Z,96556.09
2023-02-11T08:57:33.954Z,96551.59
2023-02-11T09:00:01.956Z,96546.75
2023-02-11T09:02:28.635Z,96544.84
2023-02-11T09:04:55.505Z,96529.50
2023-02-11T09:07:22.048Z,96527.88
2023-02-11T09:09:48.614Z,96521.72
2023-02-11T09:12:15.447Z,96527.63
2023-02-11T09:14:42.959Z,96523.56
2023-02-11T09:17:10.846Z,96532.53
2023-02-11T09:19:37.436Z,96528.94
2023-02-11T09:22:04.000Z,96532.44
2023-02-11T09:24:30.541Z,96541.75
2023-02-11T09:26:57.283Z,96550.16
2023-02-11T09:29:23.887Z,96546.13
2023-02-11T09:31:50.622Z,96552.44
2023-02-11T09:34:18.632Z,96540.44
2023-02-11T09:36:45.162Z,96543.34
2023-02-11T09:39:13.819Z,96538.97
2023-02-11T09:42:07.819Z,96542.44
2023-02-11T09:44:37.028Z,96535.03
2023-02-11T09:47:06.236Z,96541.38
2023-02-11T09:49:40.817Z,96550.59
2023-02-11T09:52:16.558Z,96555.06
2023-02-11T09:54:53.604Z,96550.44
2023-02-11T09:57:28.479Z,96534.19
2023-02-11T09:59:56.713Z,96533.75
2023-02-11T10:02:28.429Z,96535.63
2023-02-11T10:05:17.515Z,96527.91
2023-02-11T10:07:51.428Z,96535.06
2023-02-11T10:10:32.219Z,96532.91
2023-02-11T10:13:17.194Z,96530.88
2023-02-11T10:15:50.979Z,96536.16
2023-02-11T10:18:46.357Z,96537.59
2023-02-11T10:21:24.826Z,96524.91
2023-02-11T10:23:56.175Z,96532.63
2023-02-11T10:26:23.559Z,96520.78
2023-02-11T10:28:54.284Z,96512.88
2023-02-11T10:31:25.211Z,96507.91
2023-02-11T10:33:58.344Z,96492.50
2023-02-11T10:36:29.799Z,96499.69
2023-02-11T10:38:59.104Z,96499.47
2023-02-11T10:41:31.067Z,96489.50
2023-02-11T10:43:59.527Z,96492.94
2023-02-11T10:46:31.031Z,96498.81
2023-02-11T10:48:57.759Z,96488.31
2023-02-11T10:51:28.299Z,96484.66
2023-02-11T10:54:14.334Z,96480.81
2023-02-11T10:56:46.152Z,96465.53
2023-02-11T10:59:19.759Z,96465.47
2023-02-11T11:01:50.809Z,96458.34
2023-02-11T11:04:34.630Z,96453.41
2023-02-11T11:07:14.393Z,96454.25
2023-02-11T11:09:44.936Z,96450.66
2023-02-11T11:12:25.212Z,96449.56
2023-02-11T11:14:55.461Z,96452.91
2023-02-11T11:17:22.175Z,96450.19
2023-02-11T11:19:48.737Z,96442.69
2023-02-11T11:22:22.284Z,96438.59
2023-02-11T11:24:54.378Z,96450.44
2023-02-11T11:27:25.374Z,96450.41
2023-02-11T11:29:54.770Z,96438.97
2023-02-11T11:32:24.110Z,96435.22
2023-02-11T11:34:53.952Z,96442.28
2023-02-11T11:37:24.620Z,96429.78
2023-02-11T11:39:57.025Z,96430.56
2023-02-11T11:42:28.585Z,96433.28
2023-02-11T11:44:58.368Z,96431.41
2023-02-11T11:47:30.365Z,96424.59
2023-02-11T11:50:25.012Z,96426.44
2023-02-11T11:53:00.153Z,96425.19
2023-02-11T11:55:31.273Z,96418.09
2023-02-11T11:57:58.563Z,96413.47
2023-02-11T12:00:32.305Z,96422.59
2023-02-11T12:03:20.224Z,96426.06
2023-02-11T12:05:58.714Z,96417.16
2023-02-11T12:08:38.814Z,96421.78
2023-02-11T12:11:13.898Z,96435.00
2023-02-11T12:13:53.150Z,96426.25
2023-02-11T12:16:30.632Z,96431.41
2023-02-11T12:19:27.076Z,96432.13
2023-02-11T12:22:09.430Z,96423.56
2023-02-11T12:24:51.548Z,96421.72
2023-02-11T12:27:25.844Z,96423.97
2023-02-11T12:30:03.501Z,96418.44
2023-02-11T12:32:43.207Z,96410.38
2023-02-11T12:35:31.036Z,96402.03
2023-02-11T12:38:21.151Z,96407.94
2023-02-11T12:41:01.233Z,96394.41
2023-02-11T12:43:35.859Z,96397.56
2023-02-11T12:46:32.389Z,96391.88
2023-02-11T12:49:17.559Z,96378.72
2023-02-11T12:51:59.398Z,96376.16
2023-02-11T12:54:30.287Z,96381.84
2023-02-11T12:57:02.721Z,96375.59
2023-02-11T12:59:40.587Z,96379.03
2023-02-11T13:02:18.798Z,96376.44
2023-02-11T13:04:49.956Z,96361.50
2023-02-11T13:07:22.801Z,96360.69
2023-02-11T13:09:53.904Z,96367.00
2023-02-11T13:12:40.819Z,96357.56
2023-02-11T13:15:12.971Z,96358.22
2023-02-11T13:17:49.070Z,96353.31
2023-02-11T13:20:26.180Z,96352.03
2023-02-11T13:22:59.227Z,96346.03
2023-02-11T13:25:32.019Z,96341.50
2023-02-11T13:28:11.352Z,96341.22
2023-02-11T13:30:47.001Z,96340.09
2023-02-11T13:33:20.530Z,96337.63
2023-02-11T13:36:12.076Z,96344.16
2023-02-11T13:38:39.255Z,96351.66
2023-02-11T13:41:15.758Z,96338.41
2023-02-11T13:43:44.519Z,96357.72
2023-02-11T13:46:13.524Z,96365.28
2023-02-11T13:48:47.487Z,96370.13
2023-02-11T13:51:16.911Z,96355.50
2023-02-11T13:53:50.271Z,96356.88
2023-02-11T13:56:28.115Z,96352.91
2023-02-11T13:58:57.935Z,96359.78
2023-02-11T14:02:29.483Z,96347.19
2023-02-11T14:05:21.350Z,96359.59
2023-02-11T14:08:32.422Z,96355.84
2023-02-11T14:11:00.908Z,96360.53
2023-02-11T14:13:29.589Z,96351.53
2023-02-11T14:16:09.006Z,96354.22
2023-02-11T14:18:58.309Z,96356.94
2023-02-11T14:21:33.197Z,96360.66
2023-02-11T14:24:33.328Z,96366.38
2023-02-11T14:27:05.319Z,96359.69
2023-02-11T14:29:39.283Z,96359.34
2023-02-11T14:32:16.304Z,96352.41
2023-02-11T14:34:52.459Z,96363.81
2023-02-11T14:37:30.362Z,96358.94
2023-02-11T14:40:07.259Z,96346.34
2023-02-11T14:42:37.855Z,96351.34
2023-02-11T14:45:07.698Z,96351.47
2023-02-11T14:47:40.262Z,96351.75
2023-02-11T14:50:14.283Z,96356.25
2023-02-11T14:52:43.458Z,96355.34
2023-02-11T14:55:18.534Z,96350.97
2023-02-11T14:57:45.721Z,96362.97
2023-02-11T15:00:18.726Z,96367.19
2023-02-11T15:02:47.065Z,96362.81
2023-02-11T15:05:16.339Z,96373.81
2023-02-11T15:07:45.496Z,96362.97
2023-02-11T15:10:18.418Z,96362.81
2023-02-11T15:12:49.539Z,96370.66
2023-02-11T15:15:17.059Z,96361.19
2023-02-11T15:17:44.281Z,96365.66
2023-02-11T15:20:20.574Z,96359.91
2023-02-11T15:22:56.206Z,96370.28
2023-02-11T15:25:23.948Z,96357.78
2023-02-11T15:27:52.267Z,96367.84
2023-02-11T15:30:30.729Z,96363.06
2023-02-11T15:32:59.996Z,96363.22
2023-02-11T15:35:30.494Z,96354.88
2023-02-11T15:37:58.510Z,96360.78
2023-02-11T15:40:27.882Z,96363.09
2023-02-11T15:42:58.495Z,96364.38
2023-02-11T15:45:29.481Z,96373.53
2023-02-11T15:48:00.097Z,96375.41
2023-02-11T15:50:30.865Z,96389.22
2023-02-11T15:53:00.371Z,96389.84
2023-02-11T15:55:28.879Z,96383.56
2023-02-11T15:57:57.550Z,96383.03
2023-02-11T16:00:28.925Z,96380.97
2023-02-11T16:02:55.944Z,96397.56
2023-02-11T16:05:29.275Z,96403.38
2023-02-11T16:07:56.940Z,96398.59
2023-02-11T16:10:26.462Z,96400.09
2023-02-11T16:12:58.013Z,96402.19
2023-02-11T16:16:02.336Z,96397.94
2023-02-11T16:18:38.604Z,96404.00
2023-02-11T16:21:15.795Z,96404.00
2023-02-11T16:23:43.760Z,96403.84
2023-02-11T16:26:19.641Z,96409.78
2023-02-11T16:28:46.649Z,96413.91
2023-02-11T16:31:13.642Z,96407.09
2023-02-11T16:33:40.221Z,96413.59
2023-02-11T16:36:13.324Z,96423.22
2023-02-11T16:38:40.055Z,96427.22
2023-02-11T16:41:06.653Z,96430.66
2023-02-11T16:43:33.208Z,96424.91
2023-02-11T16:45:59.752Z,96428.88
2023-02-11T16:48:26.440Z,96436.47
2023-02-11T16:50:53.746Z,96430.53
2023-02-11T16:53:25.072Z,96430.81
2023-02-11T16:55:52.937Z,96428.78
2023-02-11T16:58:19.537Z,96425.75
2023-02-11T17:00:47.369Z,96424.50
2023-02-11T17:03:18.175Z,96437.03
2023-02-11T17:05:55.305Z,96428.91
2023-02-11T17:08:23.724Z,96429.84
2023-02-11T17:10:50.654Z,96431.94
2023-02-11T17:13:17.365Z,96445.41
2023-02-11T17:15:43.950Z,96446.91
2023-02-11T17:18:13.165Z,96440.19
2023-02-11T17:20:39.873Z,96443.88
2023-02-11T17:23:06.441Z,96447.31
2023-02-11T17:25:34.343Z,96448.97
2023-02-11T17:28:00.928Z,96449.53
2023-02-11T17:30:27.560Z,96452.00
2023-02-11T17:32:54.147Z,96460.91
2023-02-11T17:35:21.043Z,96455.41
2023-02-11T17:37:47.674Z,96454.84
2023-02-11T17:40:14.626Z,96457.09
2023-02-11T17:42:42.905Z,96457.31
2023-02-11T17:45:10.185Z,96455.31
2023-02-11T17:47:36.744Z,96455.78
2023-02-11T17:50:04.041Z,96468.44
2023-02-11T17:52:30.664Z,96469.53
2023-02-11T17:54:58.062Z,96488.22
2023-02-11T17:57:24.630Z,96485.91
2023-02-11T17:59:52.570Z,96499.28
2023-02-11T18:02:19.355Z,96502.59
2023-02-11T18:04:46.075Z,96507.88
2023-02-11T18:07:12.678Z,96512.47
2023-02-11T18:09:40.251Z,96519.19
2023-02-11T18:12:07.364Z,96530.47
2023-02-11T18:14:34.010Z,96533.06
2023-02-11T18:17:01.977Z,96538.25
2023-02-11T18:19:30.561Z,96534.72
2023-02-11T18:21:59.721Z,96547.06
2023-02-11T18:24:27.509Z,96547.44
2023-02-11T18:26:54.103Z,96548.22
2023-02-11T18:29:20.704Z,96553.34
2023-02-11T18:31:47.277Z,96557.25
2023-02-11T18:34:15.862Z,96553.41
2023-02-11T18:36:42.674Z,96549.81
2023-02-11T18:39:09.356Z,96554.66
2023-02-11T18:41:35.966Z,96548.81
2023-02-11T18:44:03.325Z,96543.91
2023-02-11T18:46:31.160Z,96553.81
2023-02-11T18:48:57.748Z,96546.66
2023-02-11T18:51:25.799Z,96556.69
2023-02-11T18:53:52.876Z,96554.09
2023-02-11T18:56:21.708Z,96564.06
2023-02-11T18:58:49.047Z,96564.13
2023-02-11T19:01:17.832Z,96567.28
2023-02-11T19:03:45.079Z,96565.78
2023-02-11T19:06:15.659Z,96563.53
2023-02-11T19:08:43.782Z,96561.91
2023-02-11T19:11:10.411Z,96560.56
2023-02-11T19:13:36.937Z,96561.78
2023-02-11T19:16:08.169Z,96566.59
2023-02-11T19:18:36.263Z,96570.72
2023-02-11T19:21:07.177Z,96566.03
2023-02-11T19:23:34.200Z,96567.00
2023-02-11T19:26:04.479Z,96564.41
2023-02-11T19:28:31.187Z,96565.91
2023-02-11T19:30:58.178Z,96558.06
2023-02-11T19:33:24.822Z,96558.63
2023-02-11T19:35:51.600Z,96562.09
2023-02-11T19:38:19.079Z,96546.53
2023-02-11T19:40:45.609Z,96557.19
2023-02-11T19:43:13.487Z,96555.59
2023-02-11T19:45:40.049Z,96558.47
2023-02-11T19:48:06.565Z,96558.91
2023-02-11T19:50:33.519Z,96547.50
2023-02-11T19:53:02.368Z,96556.28
2023-02-11T19:55:29.003Z,96550.25
2023-02-11T19:57:55.548Z,96548.19
2023-02-11T20:00:23.740Z,96552.31
2023-02-11T20:02:50.406Z,96550.38
2023-02-11T20:05:17.104Z,96547.63
2023-02-11T20:07:43.620Z,96548.59
2023-02-11T20:10:10.483Z,96549.56
2023-02-11T20:12:37.251Z,96546.94
2023-02-11T20:15:04.328Z,96542.13
2023-02-11T20:17:32.204Z,96544.47
2023-02-11T20:19:58.842Z,96545.56
2023-02-11T20:22:25.455Z,96552.44
2023-02-11T20:24:52.017Z,96545.31
2023-02-11T20:27:20.113Z,96545.16
2023-02-11T20:29:46.871Z,96547.78
2023-02-11T20:32:14.661Z,96541.47
2023-02-11T20:34:42.565Z,96543.09
2023-02-11T20:37:10.357Z,96546.41
2023-02-11T20:39:40.811Z,96543.25
2023-02-11T20:42:09.647Z,96551.75
2023-02-11T20:44:36.695Z,96550.13
2023-02-11T20:47:03.381Z,96538.56
2023-02-11T20:49:30.413Z,96547.38
2023-02-11T20:51:58.465Z,96550.94
2023-02-11T20:54:25.776Z,96552.72
2023-02-11T20:56:58.105Z,96545.03
2023-02-11T20:59:25.339Z,96550.81
2023-02-11T21:01:55.101Z,96558.44
2023-02-11T21:04:24.287Z,96554.91
2023-02-11T21:06:53.256Z,96571.06
2023-02-11T21:09:23.387Z,96571.97
2023-02-11T21:11:51.694Z,96559.44
2023-02-11T21:14:19.208Z,96560.13
2023-02-11T21:16:46.179Z,96564.53
2023-02-11T21:19:13.124Z,96561.66
2023-02-11T21:21:39.928Z,96572.94
2023-02-11T21:24:07.696Z,96562.47
2023-02-11T21:26:36.552Z,96564.81
2023-02-11T21:29:03.308Z,96568.25
2023-02-11T21:31:32.293Z,96573.63
2023-02-11T21:33:59.552Z,96580.63
2023-02-11T21:36:27.571Z,96576.38
2023-02-11T21:38:54.623Z,96575.41
2023-02-11T21:41:22.456Z,96582.28
2023-02-11T21:43:50.812Z,96580.63
2023-02-11T21:46:18.205Z,96585.72
2023-02-11T21:48:44.972Z,96592.59
2023-02-11T21:51:14.116Z,96588.31
2023-02-11T21:53:40.711Z,96591.47
2023-02-11T21:56:10.011Z,96600.41
2023-02-11T21:58:36.840Z,96594.47
2023-02-11T22:01:12.153Z,96583.50
2023-02-11T22:03:38.774Z,96582.41
2023-02-11T22:06:07.446Z,96579.78
2023-02-11T22:08:34.035Z,96581.44
2023-02-11T22:11:02.591Z,96573.22
2023-02-11T22:13:29.210Z,96573.22
2023-02-11T22:15:59.567Z,96573.72
2023-02-11T22:18:27.900Z,96581.06
2023-02-11T22:20:58.571Z,96581.13
2023-02-11T22:23:25.109Z,96588.56
2023-02-11T22:25:51.637Z,96584.88
2023-02-11T22:28:18.272Z,96588.72
2023-02-11T22:30:44.873Z,96575.53
2023-02-11T22:33:11.415Z,96576.38
2023-02-11T22:35:39.251Z,96572.94
2023-02-11T22:38:05.864Z,96575.00
2023-02-11T22:40:32.393Z,96582.16
2023-02-11T22:42:58.990Z,96579.31
2023-02-11T22:45:25.583Z,96581.72
2023-02-11T22:47:54.082Z,96579.53
2023-02-11T22:50:20.613Z,96594.22
2023-02-11T22:52:48.489Z,96588.19
2023-02-11T22:55:15.255Z,96588.31
2023-02-11T22:57:41.857Z,96582.00
2023-02-11T23:00:11.616Z,96581.31
2023-02-11T23:02:38.059Z,96590.78
2023-02-11T23:05:04.742Z,96588.19
2023-02-11T23:07:31.296Z,96582.13
2023-02-11T23:09:59.281Z,96578.50
2023-02-11T23:12:26.944Z,96575.53
2023-02-11T23:14:53.504Z,96581.44
2023-02-11T23:17:20.036Z,96579.38
2023-02-11T23:19:46.783Z,96580.34
2023-02-11T23:22:13.314Z,96582.00
2023-02-11T23:24:39.857Z,96583.94
2023-02-11T23:27:07.784Z,96583.25
2023-02-11T23:29:34.328Z,96577.31
2023-02-11T23:32:00.902Z,96586.50
2023-02-11T23:34:27.506Z,96583.09
2023-02-11T23:36:54.775Z,96582.69
2023-02-11T23:39:21.449Z,96587.09
2023-02-11T23:41:48.051Z,96585.31
2023-02-11T23:44:15.981Z,96593.00
2023-02-11T23:46:42.594Z,96592.88
2023-02-11T23:49:09.262Z,96598.22
2023-02-11T23:51:35.791Z,96598.34
2023-02-11T23:54:03.144Z,96595.59
2023-02-11T23:56:29.692Z,96591.34
2023-02-11T23:58:59.395Z,96586.94
